createdAt,value
2018-03-26T00:00:24.087Z,97564.37
2018-03-26T00:02:51.553Z,97562.16
2018-03-26T00:05:19.016Z,97571.51
2018-03-26T00:07:46.793Z,97572.95
2018-03-26T00:10:14.256Z,97571.20
2018-03-26T00:12:41.713Z,97567.88
2018-03-26T00:15:09.458Z,97572.34
2018-03-26T00:17:36.969Z,97565.54
2018-03-26T00:20:04.433Z,97564.88
2018-03-26T00:22:32.156Z,97563.84
2018-03-26T00:24:59.608Z,97573.03
2018-03-26T00:27:27.077Z,97567.61
2018-03-26T00:29:54.780Z,97564.48
2018-03-26T00:32:23.800Z,97568.92
2018-03-26T00:34:51.275Z,97565.06
2018-03-26T00:37:19.056Z,97564.52
2018-03-26T00:39:46.521Z,97572.17
2018-03-26T00:42:13.989Z,97565.94
2018-03-26T00:44:41.750Z,97569.39
2018-03-26T00:47:09.210Z,97567.19
2018-03-26T00:49:36.672Z,97566.26
2018-03-26T00:52:04.433Z,97566.34
2018-03-26T00:54:31.895Z,97564.92
2018-03-26T00:56:59.387Z,97567.13
2018-03-26T00:59:27.220Z,97567.70
2018-03-26T01:01:54.675Z,97564.95
2018-03-26T01:04:22.151Z,97569.86
2018-03-26T01:06:49.818Z,97569.76
2018-03-26T01:09:17.268Z,97563.79
2018-03-26T01:11:44.722Z,97570.16
2018-03-26T01:14:12.373Z,97566.83
2018-03-26T01:16:39.828Z,97570.23
2018-03-26T01:19:07.290Z,97568.36
2018-03-26T01:21:35.178Z,97568.49
2018-03-26T01:24:02.646Z,97569.42
2018-03-26T01:26:30.106Z,97579.05
2018-03-26T01:28:57.700Z,97566.95
2018-03-26T01:31:25.773Z,97572.59
2018-03-26T01:33:54.091Z,97566.62
2018-03-26T01:36:22.048Z,97563.11
2018-03-26T01:38:49.509Z,97565.40
2018-03-26T01:41:16.961Z,97561.84
2018-03-26T01:43:44.778Z,97561.81
2018-03-26T01:46:12.236Z,97565.31
2018-03-26T01:48:39.689Z,97571.27
2018-03-26T01:51:07.800Z,97566.67
2018-03-26T01:53:35.264Z,97566.41
2018-03-26T01:56:02.718Z,97571.84
2018-03-26T01:58:30.661Z,97574.52
2018-03-26T02:00:58.126Z,97575.64
2018-03-26T02:03:25.589Z,97576.29
2018-03-26T02:05:53.298Z,97571.00
2018-03-26T02:08:20.760Z,97563.50
2018-03-26T02:10:48.216Z,97575.14
2018-03-26T02:13:16.457Z,97578.13
2018-03-26T02:15:43.935Z,97577.20
2018-03-26T02:18:11.394Z,97577.79
2018-03-26T02:20:39.143Z,97578.56
2018-03-26T02:23:06.614Z,97578.89
2018-03-26T02:25:34.073Z,97579.16
2018-03-26T02:28:01.838Z,97583.97
2018-03-26T02:30:29.309Z,97584.76
2018-03-26T02:32:56.793Z,97588.16
2018-03-26T02:35:25.131Z,97585.18
2018-03-26T02:37:52.596Z,97589.83
2018-03-26T02:40:20.055Z,97587.22
2018-03-26T02:42:47.821Z,97586.70
2018-03-26T02:45:15.287Z,97586.34
2018-03-26T02:47:42.750Z,97585.25
2018-03-26T02:50:11.106Z,97583.11
2018-03-26T02:52:38.571Z,97586.11
2018-03-26T02:55:06.043Z,97588.93
2018-03-26T02:57:34.431Z,97588.77
2018-03-26T03:00:01.885Z,97584.87
2018-03-26T03:02:29.359Z,97591.85
2018-03-26T03:04:57.155Z,97592.44
2018-03-26T03:07:24.615Z,97592.69
2018-03-26T03:09:52.074Z,97601.11
2018-03-26T03:12:20.103Z,97601.18
2018-03-26T03:14:47.580Z,97599.08
2018-03-26T03:17:15.042Z,97599.55
2018-03-26T03:19:42.753Z,97596.97
2018-03-26T03:22:10.209Z,97608.03
2018-03-26T03:24:37.666Z,97602.58
2018-03-26T03:27:05.492Z,97604.63
2018-03-26T03:29:32.944Z,97606.77
2018-03-26T03:32:00.409Z,97609.78
2018-03-26T03:34:28.072Z,97600.44
2018-03-26T03:36:56.005Z,97608.36
2018-03-26T03:39:23.474Z,97613.05
2018-03-26T03:41:51.468Z,97613.58
2018-03-26T03:44:18.928Z,97624.22
2018-03-26T03:46:46.386Z,97616.25
2018-03-26T03:49:14.054Z,97624.42
2018-03-26T03:51:41.525Z,97627.66
2018-03-26T03:54:08.999Z,97628.66
2018-03-26T03:56:36.841Z,97626.87
2018-03-26T03:59:04.301Z,97627.20
2018-03-26T04:01:31.757Z,97625.28
2018-03-26T04:03:59.505Z,97630.03
2018-03-26T04:06:26.965Z,97629.55
2018-03-26T04:08:54.421Z,97635.95
2018-03-26T04:11:22.218Z,97638.25
2018-03-26T04:13:49.674Z,97642.72
2018-03-26T04:16:17.151Z,97641.96
2018-03-26T04:18:45.158Z,97635.93
2018-03-26T04:21:12.622Z,97645.35
2018-03-26T04:23:40.081Z,97636.25
2018-03-26T04:26:07.905Z,97641.55
2018-03-26T04:28:35.381Z,97640.78
2018-03-26T04:31:02.837Z,97635.09
2018-03-26T04:33:30.585Z,97638.36
2018-03-26T04:35:58.045Z,97638.52
2018-03-26T04:38:25.674Z,97639.45
2018-03-26T04:40:53.583Z,97638.91
2018-03-26T04:43:21.037Z,97632.70
2018-03-26T04:45:48.499Z,97638.11
2018-03-26T04:48:16.270Z,97643.98
2018-03-26T04:50:43.733Z,97647.62
2018-03-26T04:53:11.204Z,97659.36
2018-03-26T04:55:38.953Z,97656.48
2018-03-26T04:58:06.429Z,97659.20
2018-03-26T05:00:33.897Z,97658.59
2018-03-26T05:03:01.641Z,97652.29
2018-03-26T05:05:29.096Z,97664.92
2018-03-26T05:07:56.603Z,97664.34
2018-03-26T05:10:24.635Z,97670.67
2018-03-26T05:12:52.106Z,97674.63
2018-03-26T05:15:19.591Z,97674.47
2018-03-26T05:17:47.318Z,97674.20
2018-03-26T05:20:14.788Z,97670.61
2018-03-26T05:22:42.271Z,97676.62
2018-03-26T05:25:10.319Z,97674.52
2018-03-26T05:27:37.788Z,97677.95
2018-03-26T05:30:05.232Z,97670.95
2018-03-26T05:32:32.996Z,97677.98
2018-03-26T05:35:00.466Z,97684.89
2018-03-26T05:37:27.921Z,97676.80
2018-03-26T05:39:55.998Z,97682.28
2018-03-26T05:42:23.460Z,97681.19
2018-03-26T05:44:50.921Z,97687.09
2018-03-26T05:47:18.731Z,97689.94
2018-03-26T05:49:46.196Z,97680.32
2018-03-26T05:52:13.711Z,97688.45
2018-03-26T05:54:41.376Z,97685.52
2018-03-26T05:57:08.842Z,97684.14
2018-03-26T05:59:36.313Z,97681.86
2018-03-26T06:02:04.369Z,97687.41
2018-03-26T06:04:31.884Z,97694.02
2018-03-26T06:06:59.351Z,97697.78
2018-03-26T06:09:27.066Z,97691.77
2018-03-26T06:11:54.568Z,97700.21
2018-03-26T06:14:22.008Z,97688.39
2018-03-26T06:17:01.725Z,97700.83
2018-03-26T06:19:29.187Z,97700.07
2018-03-26T06:21:56.650Z,97702.13
2018-03-26T06:24:24.314Z,97702.99
2018-03-26T06:26:51.787Z,97702.22
2018-03-26T06:29:19.252Z,97707.87
2018-03-26T06:31:46.972Z,97710.06
2018-03-26T06:34:15.477Z,97715.97
2018-03-26T06:36:43.347Z,97719.25
2018-03-26T06:39:16.807Z,97714.81
2018-03-26T06:41:44.265Z,97708.17
2018-03-26T06:44:11.812Z,97713.84
2018-03-26T06:46:39.533Z,97725.27
2018-03-26T06:49:06.998Z,97728.92
2018-03-26T06:51:34.470Z,97727.17
2018-03-26T06:54:02.914Z,97734.16
2018-03-26T06:56:30.375Z,97730.67
2018-03-26T06:58:57.833Z,97738.80
2018-03-26T07:01:25.837Z,97737.80
2018-03-26T07:03:53.291Z,97740.62
2018-03-26T07:06:20.750Z,97738.91
2018-03-26T07:08:48.825Z,97747.76
2018-03-26T07:11:16.293Z,97753.64
2018-03-26T07:13:43.749Z,97749.71
2018-03-26T07:16:11.510Z,97739.92
2018-03-26T07:18:38.977Z,97748.73
2018-03-26T07:21:06.439Z,97756.95
2018-03-26T07:23:34.189Z,97759.81
2018-03-26T07:26:01.651Z,97755.75
2018-03-26T07:28:29.153Z,97754.69
2018-03-26T07:30:56.876Z,97756.62
2018-03-26T07:33:24.335Z,97758.89
2018-03-26T07:35:53.534Z,97759.74
2018-03-26T07:38:21.421Z,97755.13
2018-03-26T07:40:48.898Z,97759.16
2018-03-26T07:43:16.357Z,97761.77
2018-03-26T07:45:43.998Z,97768.34
2018-03-26T07:48:11.461Z,97780.92
2018-03-26T07:50:38.927Z,97775.95
2018-03-26T07:53:07.101Z,97772.55
2018-03-26T07:55:34.621Z,97776.57
2018-03-26T07:58:02.088Z,97777.93
2018-03-26T08:00:29.785Z,97787.19
2018-03-26T08:02:57.250Z,97791.59
2018-03-26T08:05:24.718Z,97796.34
2018-03-26T08:07:52.512Z,97804.94
2018-03-26T08:10:20.161Z,97800.52
2018-03-26T08:12:47.626Z,97804.17
2018-03-26T08:15:15.457Z,97802.94
2018-03-26T08:17:42.914Z,97799.44
2018-03-26T08:20:10.379Z,97789.56
2018-03-26T08:22:38.150Z,97790.74
2018-03-26T08:25:05.641Z,97795.41
2018-03-26T08:27:33.112Z,97795.72
2018-03-26T08:30:00.790Z,97791.45
2018-03-26T08:32:28.265Z,97790.28
2018-03-26T08:34:55.731Z,97790.41
2018-03-26T08:37:24.137Z,97788.76
2018-03-26T08:39:51.607Z,97791.55
2018-03-26T08:42:19.146Z,97795.27
2018-03-26T08:44:46.823Z,97793.97
2018-03-26T08:47:15.042Z,97799.36
2018-03-26T08:49:42.520Z,97803.47
2018-03-26T08:52:10.444Z,97803.51
2018-03-26T08:54:37.903Z,97796.53
2018-03-26T08:57:05.369Z,97805.31
2018-03-26T08:59:34.373Z,97813.44
2018-03-26T09:02:12.319Z,97816.20
2018-03-26T09:04:41.273Z,97821.25
2018-03-26T09:07:10.316Z,97815.95
2018-03-26T09:09:37.795Z,97816.06
2018-03-26T09:12:05.535Z,97814.16
2018-03-26T09:14:32.997Z,97814.38
2018-03-26T09:17:00.452Z,97815.84
2018-03-26T09:19:28.099Z,97823.75
2018-03-26T09:21:55.905Z,97816.53
2018-03-26T09:24:23.374Z,97818.38
2018-03-26T09:26:51.160Z,97831.83
2018-03-26T09:29:18.750Z,97820.59
2018-03-26T09:31:46.213Z,97827.23
2018-03-26T09:34:14.144Z,97820.47
2018-03-26T09:36:41.607Z,97825.44
2018-03-26T09:39:09.460Z,97827.95
2018-03-26T09:41:37.191Z,97826.36
2018-03-26T09:44:04.656Z,97830.39
2018-03-26T09:46:32.119Z,97831.56
2018-03-26T09:48:59.833Z,97829.88
2018-03-26T09:51:27.308Z,97827.52
2018-03-26T09:53:54.772Z,97826.39
2018-03-26T09:56:22.515Z,97820.01
2018-03-26T10:01:54.001Z,97828.13
2018-03-26T10:04:21.459Z,97812.87
2018-03-26T10:06:48.939Z,97817.02
2018-03-26T10:09:17.299Z,97810.47
2018-03-26T10:11:44.769Z,97803.89
2018-03-26T10:14:12.281Z,97808.20
2018-03-26T10:16:39.836Z,97820.31
2018-03-26T10:19:07.306Z,97816.53
2018-03-26T10:21:34.780Z,97820.13
2018-03-26T10:24:02.665Z,97820.96
2018-03-26T10:26:30.128Z,97831.13
2018-03-26T10:28:57.597Z,97829.10
2018-03-26T10:31:25.360Z,97831.11
2018-03-26T10:33:52.828Z,97826.63
2018-03-26T10:36:20.289Z,97823.23
2018-03-26T10:38:48.054Z,97825.64
2018-03-26T10:41:15.626Z,97824.84
2018-03-26T10:43:43.092Z,97822.59
2018-03-26T10:46:10.861Z,97822.92
2018-03-26T10:48:38.324Z,97832.55
2018-03-26T10:51:05.793Z,97830.13
2018-03-26T10:53:33.419Z,97835.58
2018-03-26T10:56:00.885Z,97833.53
2018-03-26T10:58:28.360Z,97830.82
2018-03-26T11:00:56.408Z,97827.82
2018-03-26T11:03:23.921Z,97833.53
2018-03-26T11:05:51.393Z,97838.67
2018-03-26T11:08:19.109Z,97837.20
2018-03-26T11:10:46.576Z,97836.47
2018-03-26T11:13:14.029Z,97839.53
2018-03-26T11:15:42.253Z,97832.56
2018-03-26T11:18:09.713Z,97830.46
2018-03-26T11:20:37.210Z,97825.95
2018-03-26T11:23:05.097Z,97828.11
2018-03-26T11:25:32.561Z,97826.80
2018-03-26T11:28:00.057Z,97826.79
2018-03-26T11:30:28.091Z,97824.05
2018-03-26T11:32:55.545Z,97824.84
2018-03-26T11:35:23.008Z,97827.06
2018-03-26T11:37:50.778Z,97826.02
2018-03-26T11:40:18.242Z,97819.47
2018-03-26T11:42:46.081Z,97822.13
2018-03-26T11:45:14.121Z,97826.29
2018-03-26T11:47:41.590Z,97820.87
2018-03-26T11:50:09.053Z,97826.53
2018-03-26T11:52:36.766Z,97828.75
2018-03-26T11:55:04.232Z,97825.72
2018-03-26T11:57:31.703Z,97826.65
2018-03-26T11:59:59.450Z,97826.42
2018-03-26T12:02:26.909Z,97827.69
2018-03-26T12:04:54.368Z,97828.55
2018-03-26T12:07:22.103Z,97830.14
2018-03-26T12:09:49.558Z,97834.03
2018-03-26T12:12:17.031Z,97831.56
2018-03-26T12:14:44.835Z,97825.36
2018-03-26T12:17:12.297Z,97825.28
2018-03-26T12:19:51.723Z,97823.02
2018-03-26T12:22:19.187Z,97826.02
2018-03-26T12:24:58.886Z,97824.51
2018-03-26T12:27:26.346Z,97819.31
2018-03-26T12:30:05.832Z,97813.73
2018-03-26T12:32:33.298Z,97809.62
2018-03-26T12:38:01.760Z,97813.96
2018-03-26T12:40:41.085Z,97818.14
2018-03-26T12:43:08.677Z,97809.23
2018-03-26T12:45:48.038Z,97811.69
2018-03-26T12:48:15.497Z,97805.69
2018-03-26T12:50:54.936Z,97805.91
2018-03-26T12:53:22.401Z,97805.42
2018-03-26T12:55:49.869Z,97809.53
2018-03-26T12:58:29.134Z,97800.05
2018-03-26T13:01:08.436Z,97801.70
2018-03-26T13:03:36.213Z,97794.21
2018-03-26T13:06:03.681Z,97798.23
2018-03-26T13:08:31.144Z,97799.58
2018-03-26T13:10:58.950Z,97797.52
2018-03-26T13:13:26.412Z,97805.14
2018-03-26T13:15:53.884Z,97811.16
2018-03-26T13:18:21.725Z,97816.89
2018-03-26T13:20:49.197Z,97821.37
2018-03-26T13:23:16.668Z,97814.26
2018-03-26T13:25:44.677Z,97808.61
2018-03-26T13:28:12.190Z,97803.72
2018-03-26T13:30:39.624Z,97808.95
2018-03-26T13:33:07.261Z,97804.71
2018-03-26T13:35:34.728Z,97807.30
2018-03-26T13:38:02.192Z,97800.55
2018-03-26T13:40:29.957Z,97806.20
2018-03-26T13:42:57.439Z,97806.33
2018-03-26T13:45:25.869Z,97812.36
2018-03-26T13:47:53.879Z,97814.94
2018-03-26T13:50:21.346Z,97810.68
2018-03-26T13:52:48.796Z,97813.73
2018-03-26T13:55:16.536Z,97811.67
2018-03-26T13:57:44.009Z,97815.97
2018-03-26T14:00:11.480Z,97822.14
2018-03-26T14:02:39.243Z,97827.52
2018-03-26T14:05:06.737Z,97823.21
2018-03-26T14:07:34.211Z,97829.13
2018-03-26T14:10:13.806Z,97822.74
2018-03-26T14:12:52.923Z,97827.07
2018-03-26T14:15:33.088Z,97820.16
2018-03-26T14:18:01.354Z,97821.02
2018-03-26T14:20:28.812Z,97824.16
2018-03-26T14:22:56.647Z,97822.98
2018-03-26T14:25:24.111Z,97820.64
2018-03-26T14:27:51.626Z,97812.59
2018-03-26T14:30:19.708Z,97808.04
2018-03-26T14:32:47.174Z,97800.79
2018-03-26T14:35:47.413Z,97803.36
2018-03-26T14:38:14.871Z,97805.36
2018-03-26T14:40:42.351Z,97809.91
2018-03-26T14:43:10.226Z,97810.09
2018-03-26T14:45:38.354Z,97809.64
2018-03-26T14:48:05.844Z,97804.67
2018-03-26T14:50:33.717Z,97812.61
2018-03-26T14:53:01.178Z,97811.17
2018-03-26T14:55:28.651Z,97810.34
2018-03-26T14:57:56.471Z,97804.38
2018-03-26T15:00:23.932Z,97807.09
2018-03-26T15:02:52.466Z,97805.37
2018-03-26T15:05:20.382Z,97805.30
2018-03-26T15:07:47.844Z,97801.05
2018-03-26T15:10:15.312Z,97810.33
2018-03-26T15:12:43.407Z,97803.39
2018-03-26T15:15:10.874Z,97806.42
2018-03-26T15:17:38.354Z,97796.20
2018-03-26T15:20:06.233Z,97794.97
2018-03-26T15:22:33.701Z,97798.87
2018-03-26T15:25:01.177Z,97797.59
2018-03-26T15:27:28.894Z,97799.58
2018-03-26T15:29:56.339Z,97809.47
2018-03-26T15:32:23.808Z,97807.42
2018-03-26T15:34:51.748Z,97808.02
2018-03-26T15:37:19.229Z,97801.19
2018-03-26T15:39:46.691Z,97797.80
2018-03-26T15:42:14.749Z,97802.59
2018-03-26T15:44:42.213Z,97794.23
2018-03-26T15:47:10.674Z,97796.39
2018-03-26T15:49:38.362Z,97797.29
2018-03-26T15:52:05.824Z,97796.22
2018-03-26T15:54:33.289Z,97796.75
2018-03-26T15:57:01.039Z,97797.28
2018-03-26T15:59:28.509Z,97794.92
2018-03-26T16:01:55.406Z,97794.21
2018-03-26T16:04:23.161Z,97795.36
2018-03-26T16:06:50.631Z,97807.67
2018-03-26T16:09:18.189Z,97809.67
2018-03-26T16:11:45.823Z,97806.77
2018-03-26T16:14:13.347Z,97808.80
2018-03-26T16:16:40.813Z,97806.97
2018-03-26T16:19:09.118Z,97813.16
2018-03-26T16:21:36.585Z,97822.41
2018-03-26T16:24:04.082Z,97821.51
2018-03-26T16:26:32.101Z,97830.69
2018-03-26T16:28:59.565Z,97830.84
2018-03-26T16:31:27.025Z,97828.44
2018-03-26T16:33:54.779Z,97828.33
2018-03-26T16:36:22.254Z,97827.57
2018-03-26T16:38:49.723Z,97835.42
2018-03-26T16:41:29.138Z,97836.80
2018-03-26T16:43:56.598Z,97843.47
2018-03-26T16:46:24.069Z,97844.48
2018-03-26T16:48:52.137Z,97851.34
2018-03-26T16:51:19.604Z,97856.48
2018-03-26T16:53:47.071Z,97858.33
2018-03-26T16:56:14.828Z,97852.45
2018-03-26T16:58:42.273Z,97855.83
2018-03-26T17:01:09.794Z,97854.73
2018-03-26T17:03:37.824Z,97860.66
2018-03-26T17:06:06.340Z,97859.23
2018-03-26T17:08:33.805Z,97866.41
2018-03-26T17:11:01.446Z,97862.08
2018-03-26T17:13:28.910Z,97864.84
2018-03-26T17:15:56.372Z,97867.20
2018-03-26T17:18:24.422Z,97874.16
2018-03-26T17:20:51.881Z,97872.95
2018-03-26T17:23:19.351Z,97870.71
2018-03-26T17:25:47.727Z,97879.56
2018-03-26T17:28:15.235Z,97875.47
2018-03-26T17:30:42.700Z,97878.72
2018-03-26T17:33:10.714Z,97885.84
2018-03-26T17:35:38.197Z,97888.80
2018-03-26T17:38:05.666Z,97883.69
2018-03-26T17:40:33.405Z,97879.73
2018-03-26T17:43:00.869Z,97883.69
2018-03-26T17:45:28.329Z,97897.69
2018-03-26T17:47:56.094Z,97902.41
2018-03-26T17:50:24.006Z,97906.38
2018-03-26T17:52:51.476Z,97911.72
2018-03-26T17:55:19.429Z,97919.08
2018-03-26T17:57:46.901Z,97921.53
2018-03-26T18:00:14.425Z,97921.41
2018-03-26T18:02:42.089Z,97924.63
2018-03-26T18:05:09.562Z,97934.45
2018-03-26T18:07:37.027Z,97940.38
2018-03-26T18:10:04.782Z,97949.17
2018-03-26T18:12:32.258Z,97949.05
2018-03-26T18:14:59.720Z,97952.94
2018-03-26T18:17:27.470Z,97952.47
2018-03-26T18:19:54.968Z,97956.46
2018-03-26T18:22:22.427Z,97954.14
2018-03-26T18:24:50.451Z,97958.77
2018-03-26T18:27:17.919Z,97962.41
2018-03-26T18:29:45.381Z,97957.13
2018-03-26T18:32:13.139Z,97962.94
2018-03-26T18:34:40.600Z,97964.64
2018-03-26T18:37:08.067Z,97970.40
2018-03-26T18:39:36.139Z,97976.19
2018-03-26T18:42:03.609Z,97974.88
2018-03-26T18:44:31.147Z,97982.31
2018-03-26T18:46:58.974Z,97984.00
2018-03-26T18:49:26.461Z,97984.97
2018-03-26T18:51:55.358Z,97984.59
2018-03-26T18:54:23.162Z,97993.62
2018-03-26T18:56:50.626Z,97995.86
2018-03-26T18:59:18.899Z,98003.17
2018-03-26T19:01:46.674Z,98005.55
2018-03-26T19:04:14.200Z,98015.69
2018-03-26T19:06:41.864Z,98014.39
2018-03-26T19:09:09.693Z,98014.59
2018-03-26T19:11:37.188Z,98024.49
2018-03-26T19:14:04.656Z,98022.16
2018-03-26T19:16:32.446Z,98019.19
2018-03-26T19:18:59.928Z,98025.56
2018-03-26T19:21:27.582Z,98025.17
2018-03-26T19:23:55.698Z,98028.42
2018-03-26T19:26:23.365Z,98025.88
2018-03-26T19:28:50.902Z,98033.91
2018-03-26T19:31:18.987Z,98034.41
2018-03-26T19:33:46.457Z,98036.64
2018-03-26T19:36:13.933Z,98040.02
2018-03-26T19:38:41.912Z,98044.97
2018-03-26T19:41:09.750Z,98041.34
2018-03-26T19:43:37.323Z,98049.52
2018-03-26T19:46:05.311Z,98048.05
2018-03-26T19:48:32.796Z,98048.38
2018-03-26T19:51:00.294Z,98048.39
2018-03-26T19:53:28.555Z,98047.94
2018-03-26T19:55:56.030Z,98049.77
2018-03-26T19:58:23.525Z,98051.94
2018-03-26T20:00:51.532Z,98056.72
2018-03-26T20:03:18.993Z,98055.23
2018-03-26T20:09:16.760Z,98065.53
2018-03-26T20:11:44.214Z,98063.92
2018-03-26T20:14:11.687Z,98071.94
2018-03-26T20:16:39.584Z,98067.84
2018-03-26T20:19:07.063Z,98074.20
2018-03-26T20:21:34.521Z,98078.98
2018-03-26T20:24:02.880Z,98077.25
2018-03-26T20:26:30.322Z,98081.30
2018-03-26T20:28:57.786Z,98078.58
2018-03-26T20:31:25.565Z,98074.05
2018-03-26T20:33:53.039Z,98082.44
2018-03-26T20:36:20.502Z,98074.38
2018-03-26T20:38:48.255Z,98077.16
2018-03-26T20:41:15.730Z,98075.23
2018-03-26T20:43:43.200Z,98067.92
2018-03-26T20:46:10.937Z,98069.45
2018-03-26T20:48:38.421Z,98072.08
2018-03-26T20:51:05.903Z,98067.81
2018-03-26T20:53:35.161Z,98071.97
2018-03-26T20:56:02.631Z,98079.19
2018-03-26T20:58:30.098Z,98075.84
2018-03-26T21:00:57.851Z,98075.81
2018-03-26T21:03:25.305Z,98075.07
2018-03-26T21:05:52.770Z,98074.91
2018-03-26T21:08:20.532Z,98081.70
2018-03-26T21:10:48.004Z,98080.93
2018-03-26T21:13:15.473Z,98075.72
2018-03-26T21:15:43.231Z,98077.99
2018-03-26T21:18:10.705Z,98076.02
2018-03-26T21:20:38.163Z,98076.04
2018-03-26T21:23:05.918Z,98073.01
2018-03-26T21:25:33.382Z,98073.59
2018-03-26T21:28:00.849Z,98074.54
2018-03-26T21:30:28.596Z,98063.57
2018-03-26T21:32:56.060Z,98066.09
2018-03-26T21:35:23.524Z,98068.20
2018-03-26T21:37:51.130Z,98067.85
2018-03-26T21:40:18.618Z,98072.91
2018-03-26T21:42:46.091Z,98069.91
2018-03-26T21:45:13.974Z,98069.61
2018-03-26T21:47:41.438Z,98060.81
2018-03-26T21:50:08.905Z,98067.16
2018-03-26T21:52:37.193Z,98055.76
2018-03-26T21:55:05.447Z,98060.64
2018-03-26T21:57:32.917Z,98055.36
2018-03-26T22:00:00.766Z,98052.33
2018-03-26T22:02:28.242Z,98057.09
2018-03-26T22:05:01.941Z,98051.47
2018-03-26T22:07:29.404Z,98053.05
2018-03-26T22:09:56.869Z,98050.60
2018-03-26T22:15:06.327Z,98061.52
2018-03-26T22:17:34.000Z,98068.70
2018-03-26T22:20:01.460Z,98063.75
2018-03-26T22:22:28.923Z,98062.64
2018-03-26T22:24:56.673Z,98069.80
2018-03-26T22:27:24.141Z,98067.48
2018-03-26T22:29:51.594Z,98067.89
2018-03-26T22:32:19.373Z,98070.45
2018-03-26T22:34:46.844Z,98066.91
2018-03-26T22:37:14.314Z,98074.72
2018-03-26T22:39:41.966Z,98070.81
2018-03-26T22:42:09.447Z,98074.72
2018-03-26T22:44:36.913Z,98074.85
2018-03-26T22:47:04.749Z,98077.60
2018-03-26T22:49:32.217Z,98074.52
2018-03-26T22:51:59.678Z,98078.53
2018-03-26T22:54:27.423Z,98074.46
2018-03-26T22:56:55.282Z,98072.47
2018-03-26T22:59:22.745Z,98075.95
2018-03-26T23:01:50.731Z,98076.99
2018-03-26T23:04:18.190Z,98073.58
2018-03-26T23:06:45.645Z,98079.30
2018-03-26T23:09:13.420Z,98074.84
2018-03-26T23:11:40.889Z,98073.80
2018-03-26T23:14:08.400Z,98074.39
2018-03-26T23:16:36.111Z,98077.64
2018-03-26T23:19:03.572Z,98074.29
2018-03-26T23:21:31.033Z,98080.13
2018-03-26T23:23:58.799Z,98080.02
2018-03-26T23:26:26.272Z,98081.75
2018-03-26T23:28:54.304Z,98072.80
2018-03-26T23:31:22.032Z,98067.38
2018-03-26T23:33:49.512Z,98072.11
2018-03-26T23:36:16.985Z,98076.41
2018-03-26T23:38:44.786Z,98076.11
2018-03-26T23:41:12.258Z,98066.99
2018-03-26T23:43:39.732Z,98072.87
2018-03-26T23:46:07.472Z,98065.89
2018-03-26T23:48:34.934Z,98064.25
2018-03-26T23:51:02.401Z,98061.25
2018-03-26T23:53:30.162Z,98055.47
2018-03-26T23:55:57.647Z,98057.81
2018-03-26T23:58:25.440Z,98054.02
